Time;durP1;ratioP1;P1;durP2;ratioP2;P2;SDS_P1;SDS_P2;PMS_P1;PMS_P2;Temp;Humidity;BMP_temperature;BMP_pressure;BME280_temperature;BME280_humidity;BME280_pressure;Samples;Min_cycle;Max_cycle;Signal;HPM_P1;HPM_P2
2023/12/12 00:02:23;;;;;;;;;;;;;;;;;;6311080;28;19965;-84
2023/12/12 00:05:24;;;;;;;;;;;;;;;;;;6303258;28;19923;-84
2023/12/12 00:08:24;;;;;;;;;;;;;;;;;;6322210;28;19923;-83
2023/12/12 00:11:24;;;;;;;;;;;;;;;;;;6296460;28;20018;-83
2023/12/12 00:14:24;;;;;;;;;;;;;;;;;;6312940;28;19955;-83
2023/12/12 00:17:24;;;;;;;;;;;;;;;;;;6299141;28;20011;-84
2023/12/12 00:20:24;;;;;;;;;;;;;;;;;;6303289;28;19957;-83
2023/12/12 00:23:24;;;;;;;;;;;;;;;;;;6297779;28;20019;-83
2023/12/12 00:26:24;;;;;;;;;;;;;;;;;;6297759;28;19924;-83
2023/12/12 00:29:25;;;;;;;;;;;;;;;;;;6297356;28;19912;-83
2023/12/12 00:32:25;;;;;;;;;;;;;;;;;;6314689;28;19970;-84
2023/12/12 00:35:26;;;;;;;;;;;;;;;;;;6301986;28;19970;-84
2023/12/12 00:38:29;;;;;;;;;;;;;;;;;;6322721;28;19915;-83
2023/12/12 00:41:29;;;;;;;;;;;;;;;;;;6286290;28;20269;-83
2023/12/12 00:44:29;;;;;;;;;;;;;;;;;;6315215;28;19916;-83
2023/12/12 00:47:30;;;;;;;;;;;;;;;;;;6284059;28;19943;-83
2023/12/12 00:50:30;;;;;;;;;;;;;;;;;;6323856;28;19912;-83
2023/12/12 00:53:30;;;;;;;;;;;;;;;;;;6299138;28;19919;-83
2023/12/12 00:56:30;;;;;;;;;;;;;;;;;;6296063;28;20432;-85
2023/12/12 00:59:30;;;;;;;;;;;;;;;;;;6307762;28;19913;-83
2023/12/12 01:02:30;;;;;;;;;;;;;;;;;;6321563;28;19916;-85
2023/12/12 01:05:31;;;;;;;;;;;;;;;;;;6302850;28;19912;-84
2023/12/12 01:08:31;;;;;;;;;;;;;;;;;;6303051;28;19966;-84
2023/12/12 01:11:31;;;;;;;;;;;;;;;;;;6311148;28;19912;-84
2023/12/12 01:14:31;;;;;;;;;;;;;;;;;;6307059;28;19912;-84
2023/12/12 01:17:31;;;;;;;;;;;;;;;;;;6303398;28;19991;-84
2023/12/12 01:20:31;;;;;;;;;;;;;;;;;;6326285;28;19908;-83
2023/12/12 01:23:31;;;;;;;;;;;;;;;;;;6326149;28;19912;-83
2023/12/12 01:26:32;;;;;;;;;;;;;;;;;;6325177;28;19916;-83
2023/12/12 01:29:32;;;;;;;;;;;;;;;;;;6325193;28;19919;-83
2023/12/12 01:32:32;;;;;;;;;;;;;;;;;;6303551;28;19920;-83
2023/12/12 01:35:32;;;;;;;;;;;;;;;;;;6303821;28;19909;-83
2023/12/12 01:38:32;;;;;;;;;;;;;;;;;;6301586;28;19909;-83
2023/12/12 01:41:32;;;;;;;;;;;;;;;;;;6309332;28;19987;-83
2023/12/12 01:44:32;;;;;;;;;;;;;;;;;;6312189;28;19916;-83
2023/12/12 01:47:32;;;;;;;;;;;;;;;;;;6325783;28;19919;-83
2023/12/12 01:50:33;;;;;;;;;;;;;;;;;;6325389;28;19961;-82
2023/12/12 01:53:33;;;;;;;;;;;;;;;;;;6324877;28;19912;-85
2023/12/12 01:56:33;;;;;;;;;;;;;;;;;;6293901;28;19919;-83
2023/12/12 01:59:33;;;;;;;;;;;;;;;;;;6300917;28;20257;-83
2023/12/12 02:02:33;;;;;;;;;;;;;;;;;;6324845;28;20260;-83
2023/12/12 02:05:33;;;;;;;;;;;;;;;;;;6324150;28;20296;-83
2023/12/12 02:08:33;;;;;;;;;;;;;;;;;;6297815;28;20293;-86
2023/12/12 02:11:34;;;;;;;;;;;;;;;;;;6316987;28;20319;-83
2023/12/12 02:14:37;;;;;;;;;;;;;;;;;;6325073;28;20357;-83
2023/12/12 02:17:37;;;;;;;;;;;;;;;;;;6324204;28;19916;-83
2023/12/12 02:20:37;;;;;;;;;;;;;;;;;;6306674;28;19908;-82
2023/12/12 02:23:37;;;;;;;;;;;;;;;;;;6308990;28;19924;-83
2023/12/12 02:26:37;;;;;;;;;;;;;;;;;;6299845;28;19927;-83
2023/12/12 02:32:37;;;;;;;;;;;;;;;;;;6321194;28;19952;-82
2023/12/12 02:35:37;;;;;;;;;;;;;;;;;;6324151;28;20456;-82
2023/12/12 02:38:38;;;;;;;;;;;;;;;;;;6323914;28;20365;-82
2023/12/12 02:41:38;;;;;;;;;;;;;;;;;;6319211;28;20361;-82
2023/12/12 02:44:38;;;;;;;;;;;;;;;;;;6302776;28;20284;-83
2023/12/12 02:47:38;;;;;;;;;;;;;;;;;;6299266;28;20280;-83
2023/12/12 02:50:38;;;;;;;;;;;;;;;;;;6301457;28;20261;-82
2023/12/12 02:53:38;;;;;;;;;;;;;;;;;;6324483;28;19908;-84
2023/12/12 02:56:38;;;;;;;;;;;;;;;;;;6299548;28;19914;-82
2023/12/12 02:59:39;;;;;;;;;;;;;;;;;;6306409;28;20318;-83
2023/12/12 03:02:39;;;;;;;;;;;;;;;;;;6304736;28;19913;-82
2023/12/12 03:05:39;;;;;;;;;;;;;;;;;;6305775;28;19920;-83
2023/12/12 03:08:39;;;;;;;;;;;;;;;;;;6319085;28;19912;-83
2023/12/12 03:11:39;;;;;;;;;;;;;;;;;;6299896;28;19958;-83
2023/12/12 03:14:39;;;;;;;;;;;;;;;;;;6312337;28;20357;-85
2023/12/12 03:17:39;;;;;;;;;;;;;;;;;;6324065;28;20127;-84
2023/12/12 03:20:40;;;;;;;;;;;;;;;;;;6319134;28;20014;-84
2023/12/12 03:23:40;;;;;;;;;;;;;;;;;;6310732;28;19951;-84
2023/12/12 03:26:40;;;;;;;;;;;;;;;;;;6298788;28;19993;-83
2023/12/12 03:29:40;;;;;;;;;;;;;;;;;;6298436;28;19912;-87
2023/12/12 03:32:40;;;;;;;;;;;;;;;;;;6306440;28;19916;-84
2023/12/12 03:35:41;;;;;;;;;;;;;;;;;;6318420;28;19912;-84
2023/12/12 03:38:41;;;;;;;;;;;;;;;;;;6312021;28;19919;-84
2023/12/12 03:41:41;;;;;;;;;;;;;;;;;;6314729;28;19923;-84
2023/12/12 03:44:41;;;;;;;;;;;;;;;;;;6304337;28;20019;-84
2023/12/12 03:47:41;;;;;;;;;;;;;;;;;;6304666;28;20010;-84
2023/12/12 03:50:41;;;;;;;;;;;;;;;;;;6302957;28;20404;-83
2023/12/12 03:53:41;;;;;;;;;;;;;;;;;;6297833;28;19937;-84
2023/12/12 03:56:42;;;;;;;;;;;;;;;;;;6313673;28;19920;-84
2023/12/12 03:59:42;;;;;;;;;;;;;;;;;;6323266;28;19908;-84
2023/12/12 04:02:42;;;;;;;;;;;;;;;;;;6321671;28;19908;-85
2023/12/12 04:05:42;;;;;;;;;;;;;;;;;;6321428;28;20430;-84
2023/12/12 04:08:42;;;;;;;;;;;;;;;;;;6322071;28;19927;-84
2023/12/12 04:11:42;;;;;;;;;;;;;;;;;;6321661;28;19990;-88
2023/12/12 04:14:43;;;;;;;;;;;;;;;;;;6322038;28;19923;-85
2023/12/12 04:17:43;;;;;;;;;;;;;;;;;;6319538;28;19912;-86
2023/12/12 04:20:43;;;;;;;;;;;;;;;;;;6312461;28;19912;-88
2023/12/12 04:23:43;;;;;;;;;;;;;;;;;;6292897;28;19966;-84
2023/12/12 04:26:43;;;;;;;;;;;;;;;;;;6289630;28;19921;-84
2023/12/12 04:29:43;;;;;;;;;;;;;;;;;;6311627;28;19920;-84
2023/12/12 04:32:44;;;;;;;;;;;;;;;;;;6307505;28;19916;-85
2023/12/12 04:35:44;;;;;;;;;;;;;;;;;;6303625;28;19908;-84
2023/12/12 04:38:44;;;;;;;;;;;;;;;;;;6295857;28;19912;-84
2023/12/12 04:41:44;;;;;;;;;;;;;;;;;;6297126;28;19908;-85
2023/12/12 04:44:44;;;;;;;;;;;;;;;;;;6303158;28;20390;-84
2023/12/12 04:47:44;;;;;;;;;;;;;;;;;;6303017;28;20490;-84
2023/12/12 04:50:44;;;;;;;;;;;;;;;;;;6315523;28;20465;-85
2023/12/12 04:53:45;;;;;;;;;;;;;;;;;;6310537;28;20348;-84
2023/12/12 04:56:45;;;;;;;;;;;;;;;;;;6317837;28;20018;-84
2023/12/12 04:59:45;;;;;;;;;;;;;;;;;;6312526;28;20343;-84
2023/12/12 05:02:45;;;;;;;;;;;;;;;;;;6307205;28;20006;-84
2023/12/12 05:05:47;;;;;;;;;;;;;;;;;;6318154;28;19923;-84
2023/12/12 05:08:47;;;;;;;;;;;;;;;;;;6284174;28;20319;-84
2023/12/12 05:11:48;;;;;;;;;;;;;;;;;;6317430;28;19912;-85
2023/12/12 05:14:48;;;;;;;;;;;;;;;;;;6327235;28;20352;-85
2023/12/12 05:17:48;;;;;;;;;;;;;;;;;;6309271;28;19919;-85
2023/12/12 05:20:48;;;;;;;;;;;;;;;;;;6315482;28;19944;-83
2023/12/12 05:23:48;;;;;;;;;;;;;;;;;;6313328;28;19959;-84
2023/12/12 05:26:48;;;;;;;;;;;;;;;;;;6301721;28;19978;-84
2023/12/12 05:29:49;;;;;;;;;;;;;;;;;;6303426;28;19908;-85
2023/12/12 05:32:49;;;;;;;;;;;;;;;;;;6316714;28;19920;-83
2023/12/12 05:35:49;;;;;;;;;;;;;;;;;;6317444;28;19915;-84
2023/12/12 05:38:50;;;;;;;;;;;;;;;;;;6325657;28;19919;-84
2023/12/12 05:41:50;;;;;;;;;;;;;;;;;;6325714;28;19912;-84
2023/12/12 05:44:50;;;;;;;;;;;;;;;;;;6301434;28;19939;-84
2023/12/12 05:47:51;;;;;;;;;;;;;;;;;;6300656;28;19969;-83
2023/12/12 05:50:51;;;;;;;;;;;;;;;;;;6300237;28;19913;-84
2023/12/12 05:53:51;;;;;;;;;;;;;;;;;;6313442;28;19916;-83
2023/12/12 05:56:51;;;;;;;;;;;;;;;;;;6310755;28;19923;-84
2023/12/12 05:59:51;;;;;;;;;;;;;;;;;;6311580;28;19912;-84
2023/12/12 06:02:51;;;;;;;;;;;;;;;;;;6325616;28;19946;-83
2023/12/12 06:05:51;;;;;;;;;;;;;;;;;;6306108;28;19944;-83
2023/12/12 06:08:52;;;;;;;;;;;;;;;;;;6325711;28;20025;-83
2023/12/12 06:11:52;;;;;;;;;;;;;;;;;;6287536;28;20365;-83
2023/12/12 06:14:52;;;;;;;;;;;;;;;;;;6324766;28;19912;-83
2023/12/12 06:17:53;;;;;;;;;;;;;;;;;;6306767;28;19916;-86
2023/12/12 06:20:53;;;;;;;;;;;;;;;;;;6324405;28;19930;-83
2023/12/12 06:23:53;;;;;;;;;;;;;;;;;;6313904;28;19969;-84
2023/12/12 06:26:53;;;;;;;;;;;;;;;;;;6299452;28;19920;-84
2023/12/12 06:29:53;;;;;;;;;;;;;;;;;;6302868;28;19912;-84
2023/12/12 06:32:55;;;;;;;;;;;;;;;;;;6324695;28;19912;-84
2023/12/12 06:35:56;;;;;;;;;;;;;;;;;;6319445;28;19924;-84
2023/12/12 06:38:56;;;;;;;;;;;;;;;;;;6325135;28;19913;-84
2023/12/12 06:41:58;;;;;;;;;;;;;;;;;;5963155;28;10000047;-84
2023/12/12 06:44:58;;;;;;;;;;;;;;;;;;6303319;28;20000;-83
2023/12/12 06:47:58;;;;;;;;;;;;;;;;;;6318555;28;20281;-83
2023/12/12 06:50:58;;;;;;;;;;;;;;;;;;6303858;28;20272;-84
2023/12/12 06:53:59;;;;;;;;;;;;;;;;;;6301397;28;20280;-83
2023/12/12 06:56:59;;;;;;;;;;;;;;;;;;6303777;28;19995;-83
2023/12/12 06:59:59;;;;;;;;;;;;;;;;;;6301134;28;20380;-84
2023/12/12 07:03:00;;;;;;;;;;;;;;;;;;6296294;28;19916;-84
2023/12/12 07:06:02;;;;;;;;;;;;;;;;;;6305888;28;19920;-85
2023/12/12 07:09:02;;;;;;;;;;;;;;;;;;6321398;28;20426;-83
2023/12/12 07:12:04;;;;;;;;;;;;;;;;;;6318706;28;19915;-85
2023/12/12 07:15:04;;;;;;;;;;;;;;;;;;6321065;28;19912;-83
2023/12/12 07:18:10;;;;;;;;;;;;;;;;;;6301353;28;19916;-83
2023/12/12 07:21:10;;;;;;;;;;;;;;;;;;6309645;28;20380;-83
2023/12/12 07:24:10;;;;;;;;;;;;;;;;;;6296372;28;19913;-85
2023/12/12 07:27:10;;;;;;;;;;;;;;;;;;6295938;28;19916;-82
2023/12/12 07:30:11;;;;;;;;;;;;;;;;;;6295361;28;20376;-79
2023/12/12 07:33:11;;;;;;;;;;;;;;;;;;5966241;28;10000543;-81
2023/12/12 07:36:11;;;;;;;;;;;;;;;;;;6326156;28;19908;-78
2023/12/12 07:39:11;;;;;;;;;;;;;;;;;;6285508;28;19917;-79
2023/12/12 07:42:13;;;;;;;;;;;;;;;;;;6319866;28;20040;-79
2023/12/12 07:45:13;;;;;;;;;;;;;;;;;;6310644;28;19965;-78
2023/12/12 07:48:13;;;;;;;;;;;;;;;;;;6296180;28;19963;-79
2023/12/12 07:51:13;;;;;;;;;;;;;;;;;;6317460;28;19951;-79
2023/12/12 07:54:13;;;;;;;;;;;;;;;;;;6313823;28;19912;-80
2023/12/12 07:57:14;;;;;;;;;;;;;;;;;;6319705;28;19908;-78
2023/12/12 08:00:14;;;;;;;;;;;;;;;;;;6304638;28;19930;-78
2023/12/12 08:03:14;;;;;;;;;;;;;;;;;;6330325;28;19915;-80
2023/12/12 08:06:15;;;;;;;;;;;;;;;;;;6308725;28;19916;-78
2023/12/12 08:09:15;;;;;;;;;;;;;;;;;;6317340;28;20065;-78
2023/12/12 08:12:16;;;;;;;;;;;;;;;;;;6320033;28;19919;-78
2023/12/12 08:15:19;;;;;;;;;;;;;;;;;;6322460;28;19912;-78
2023/12/12 08:18:20;;;;;;;;;;;;;;;;;;6305138;28;19918;-79
2023/12/12 08:21:20;;;;;;;;;;;;;;;;;;6298711;28;19912;-78
2023/12/12 08:24:20;;;;;;;;;;;;;;;;;;6312347;28;19923;-78
2023/12/12 08:27:20;;;;;;;;;;;;;;;;;;6322045;28;20279;-78
2023/12/12 08:30:20;;;;;;;;;;;;;;;;;;6325316;28;19984;-79
2023/12/12 08:33:20;;;;;;;;;;;;;;;;;;6305018;28;20007;-78
2023/12/12 08:36:20;;;;;;;;;;;;;;;;;;6296980;28;20007;-78
2023/12/12 08:39:21;;;;;;;;;;;;;;;;;;6314400;28;19992;-78
2023/12/12 08:42:21;;;;;;;;;;;;;;;;;;6313418;28;19916;-78
2023/12/12 08:45:22;;;;;;;;;;;;;;;;;;6299760;28;19916;-78
2023/12/12 08:48:23;;;;;;;;;;;;;;;;;;6309180;28;20002;-78
2023/12/12 08:51:23;;;;;;;;;;;;;;;;;;6292558;28;19917;-79
2023/12/12 08:54:24;;;;;;;;;;;;;;;;;;6313986;28;19920;-78
2023/12/12 08:57:24;;;;;;;;;;;;;;;;;;6312454;28;19934;-79
2023/12/12 09:00:24;;;;;;;;;;;;;;;;;;6309739;28;19909;-78
2023/12/12 09:03:24;;;;;;;;;;;;;;;;;;6303163;28;20054;-82
2023/12/12 09:06:24;;;;;;;;;;;;;;;;;;6296770;28;20003;-83
2023/12/12 09:09:27;;;;;;;;;;;;;;;;;;6314377;28;19915;-83
2023/12/12 09:12:28;;;;;;;;;;;;;;;;;;6321967;28;20007;-84
2023/12/12 09:15:28;;;;;;;;;;;;;;;;;;6322817;28;19917;-84
2023/12/12 09:18:28;;;;;;;;;;;;;;;;;;6320847;28;19915;-84
2023/12/12 09:21:28;;;;;;;;;;;;;;;;;;6311864;28;19913;-84
2023/12/12 09:24:28;;;;;;;;;;;;;;;;;;6310340;28;20015;-84
2023/12/12 09:27:28;;;;;;;;;;;;;;;;;;6318294;28;20262;-84
2023/12/12 09:30:28;;;;;;;;;;;;;;;;;;6320724;28;19927;-84
2023/12/12 09:33:29;;;;;;;;;;;;;;;;;;6316357;28;20003;-84
2023/12/12 09:36:29;;;;;;;;;;;;;;;;;;5933220;28;9999817;-84
2023/12/12 09:39:29;;;;;;;;;;;;;;;;;;6299208;28;19950;-84
2023/12/12 09:42:29;;;;;;;;;;;;;;;;;;6316095;28;19912;-84
2023/12/12 09:45:29;;;;;;;;;;;;;;;;;;6333021;28;19923;-84
2023/12/12 09:48:29;;;;;;;;;;;;;;;;;;6334073;28;19920;-84
2023/12/12 09:51:30;;;;;;;;;;;;;;;;;;6299826;28;19912;-83
2023/12/12 09:54:30;;;;;;;;;;;;;;;;;;6306955;28;19965;-84
2023/12/12 09:57:30;;;;;;;;;;;;;;;;;;6301001;28;19913;-84
2023/12/12 10:00:30;;;;;;;;;;;;;;;;;;6304313;28;20015;-84
2023/12/12 10:03:32;;;;;;;;;;;;;;;;;;6313478;28;19920;-84
2023/12/12 10:06:32;;;;;;;;;;;;;;;;;;6322515;28;20313;-84
2023/12/12 10:09:33;;;;;;;;;;;;;;;;;;6313240;28;19923;-84
2023/12/12 10:12:33;;;;;;;;;;;;;;;;;;6336296;28;19947;-84
2023/12/12 10:15:33;;;;;;;;;;;;;;;;;;6307327;28;19916;-80
2023/12/12 10:18:34;;;;;;;;;;;;;;;;;;6319556;28;20684;-80
2023/12/12 10:21:34;;;;;;;;;;;;;;;;;;6304515;28;19916;-80
2023/12/12 10:24:35;;;;;;;;;;;;;;;;;;6324888;28;20011;-81
2023/12/12 10:27:35;;;;;;;;;;;;;;;;;;6321464;28;19955;-79
2023/12/12 10:30:35;;;;;;;;;;;;;;;;;;6322560;28;19920;-80
2023/12/12 10:33:36;;;;;;;;;;;;;;;;;;6320268;28;20053;-80
2023/12/12 10:36:37;;;;;;;;;;;;;;;;;;6324648;28;19947;-79
2023/12/12 10:39:38;;;;;;;;;;;;;;;;;;6312082;28;20320;-79
2023/12/12 10:42:40;;;;;;;;;;;;;;;;;;6302280;28;19962;-81
2023/12/12 10:45:42;;;;;;;;;;;;;;;;;;6312565;28;19922;-79
2023/12/12 10:48:43;;;;;;;;;;;;;;;;;;6307305;28;19921;-81
2023/12/12 10:51:43;;;;;;;;;;;;;;;;;;6306668;28;19912;-80
2023/12/12 10:54:44;;;;;;;;;;;;;;;;;;6293363;28;20342;-79
2023/12/12 10:57:44;;;;;;;;;;;;;;;;;;6302556;28;19919;-79
2023/12/12 11:00:44;;;;;;;;;;;;;;;;;;6308624;28;19912;-79
2023/12/12 11:03:44;;;;;;;;;;;;;;;;;;6308517;28;19923;-80
2023/12/12 11:06:44;;;;;;;;;;;;;;;;;;6293555;28;20373;-79
2023/12/12 11:09:44;;;;;;;;;;;;;;;;;;6314000;28;19912;-80
2023/12/12 11:12:45;;;;;;;;;;;;;;;;;;6314003;28;19966;-80
2023/12/12 11:15:45;;;;;;;;;;;;;;;;;;6299050;28;19915;-80
2023/12/12 11:18:45;;;;;;;;;;;;;;;;;;6311444;28;20003;-80
2023/12/12 11:21:45;;;;;;;;;;;;;;;;;;6322669;28;19915;-82
2023/12/12 11:24:45;;;;;;;;;;;;;;;;;;6300045;28;19913;-80
2023/12/12 11:27:46;;;;;;;;;;;;;;;;;;6320824;28;19912;-80
2023/12/12 11:30:47;;;;;;;;;;;;;;;;;;6323439;28;19935;-80
2023/12/12 11:33:47;;;;;;;;;;;;;;;;;;6300283;28;20323;-79
2023/12/12 11:36:47;;;;;;;;;;;;;;;;;;6311723;28;19931;-79
2023/12/12 11:39:50;;;;;;;;;;;;;;;;;;6318519;28;19913;-80
2023/12/12 11:42:51;;;;;;;;;;;;;;;;;;6295015;28;20352;-80
2023/12/12 11:45:54;;;;;;;;;;;;;;;;;;6317577;28;19956;-81
2023/12/12 11:48:54;;;;;;;;;;;;;;;;;;6315054;28;20481;-79
2023/12/12 11:51:55;;;;;;;;;;;;;;;;;;6314434;28;19912;-80
2023/12/12 11:54:55;;;;;;;;;;;;;;;;;;6305968;28;20407;-80
2023/12/12 11:57:55;;;;;;;;;;;;;;;;;;6315098;28;20078;-81
2023/12/12 12:00:55;;;;;;;;;;;;;;;;;;6316797;28;20395;-80
2023/12/12 12:03:55;;;;;;;;;;;;;;;;;;6318560;28;20279;-80
2023/12/12 12:06:56;;;;;;;;;;;;;;;;;;6304896;28;20273;-79
2023/12/12 12:09:56;;;;;;;;;;;;;;;;;;6287298;28;20391;-80
2023/12/12 12:12:56;;;;;;;;;;;;;;;;;;6316119;28;20109;-80
2023/12/12 12:15:56;;;;;;;;;;;;;;;;;;6314051;28;20011;-80
2023/12/12 12:18:57;;;;;;;;;;;;;;;;;;6293886;28;19939;-80
2023/12/12 12:21:57;;;;;;;;;;;;;;;;;;6324353;28;19938;-79
2023/12/12 12:24:57;;;;;;;;;;;;;;;;;;6302396;28;20391;-80
2023/12/12 12:27:57;;;;;;;;;;;;;;;;;;6320335;28;19916;-80
2023/12/12 12:30:58;;;;;;;;;;;;;;;;;;6319041;28;19927;-79
2023/12/12 12:33:58;;;;;;;;;;;;;;;;;;6320544;28;19998;-78
2023/12/12 12:37:02;;;;;;;;;;;;;;;;;;6322281;28;19908;-80
2023/12/12 12:40:04;;;;;;;;;;;;;;;;;;6296981;28;19917;-80
2023/12/12 12:43:04;;;;;;;;;;;;;;;;;;6307566;28;20003;-79
2023/12/12 12:46:04;;;;;;;;;;;;;;;;;;6320342;28;19922;-80
2023/12/12 12:49:04;;;;;;;;;;;;;;;;;;6320925;28;19940;-80
2023/12/12 12:52:05;;;;;;;;;;;;;;;;;;6321939;28;19940;-80
2023/12/12 12:55:05;;;;;;;;;;;;;;;;;;6302937;28;19927;-80
2023/12/12 12:58:05;;;;;;;;;;;;;;;;;;6318381;28;19927;-80
2023/12/12 13:01:05;;;;;;;;;;;;;;;;;;6313041;28;19998;-82
2023/12/12 13:04:06;;;;;;;;;;;;;;;;;;6312926;28;19961;-80
2023/12/12 13:07:07;;;;;;;;;;;;;;;;;;6320644;28;20007;-80
2023/12/12 13:10:09;;;;;;;;;;;;;;;;;;6321193;28;19993;-79
2023/12/12 13:13:10;;;;;;;;;;;;;;;;;;6304630;28;19912;-81
2023/12/12 13:16:10;;;;;;;;;;;;;;;;;;6303220;28;19961;-80
2023/12/12 13:19:11;;;;;;;;;;;;;;;;;;6321479;28;20281;-80
2023/12/12 13:22:11;;;;;;;;;;;;;;;;;;6325099;28;19956;-80
2023/12/12 13:25:12;;;;;;;;;;;;;;;;;;6324352;28;19916;-79
2023/12/12 13:28:12;;;;;;;;;;;;;;;;;;6301531;28;20448;-80
2023/12/12 13:31:12;;;;;;;;;;;;;;;;;;6312416;28;19992;-80
2023/12/12 13:34:12;;;;;;;;;;;;;;;;;;6300863;28;19908;-80
2023/12/12 13:37:12;;;;;;;;;;;;;;;;;;6326220;28;19908;-80
2023/12/12 13:40:12;;;;;;;;;;;;;;;;;;6319043;28;19919;-79
2023/12/12 13:43:13;;;;;;;;;;;;;;;;;;6313628;28;20384;-82
2023/12/12 13:46:13;;;;;;;;;;;;;;;;;;6307202;28;20389;-83
2023/12/12 13:49:13;;;;;;;;;;;;;;;;;;6333053;28;19916;-83
2023/12/12 13:52:13;;;;;;;;;;;;;;;;;;6325018;28;19912;-83
2023/12/12 13:55:14;;;;;;;;;;;;;;;;;;6325828;28;19908;-83
2023/12/12 13:58:14;;;;;;;;;;;;;;;;;;6324456;28;19908;-84
2023/12/12 14:01:14;;;;;;;;;;;;;;;;;;6325596;28;19909;-83
2023/12/12 14:04:14;;;;;;;;;;;;;;;;;;6306014;28;19961;-83
2023/12/12 14:07:14;;;;;;;;;;;;;;;;;;6325006;28;20015;-83
2023/12/12 14:10:14;;;;;;;;;;;;;;;;;;6306881;28;19959;-83
2023/12/12 14:13:14;;;;;;;;;;;;;;;;;;6310462;28;20368;-83
2023/12/12 14:16:15;;;;;;;;;;;;;;;;;;6306181;28;20387;-83
2023/12/12 14:19:15;;;;;;;;;;;;;;;;;;6324298;28;20288;-83
2023/12/12 14:22:15;;;;;;;;;;;;;;;;;;6325059;28;19912;-83
2023/12/12 14:25:15;;;;;;;;;;;;;;;;;;6324542;28;19930;-83
2023/12/12 14:28:15;;;;;;;;;;;;;;;;;;6324493;28;20368;-83
2023/12/12 14:31:16;;;;;;;;;;;;;;;;;;6321593;28;20023;-83
2023/12/12 14:34:17;;;;;;;;;;;;;;;;;;6311363;28;20011;-83
2023/12/12 14:37:17;;;;;;;;;;;;;;;;;;6328339;28;19966;-83
2023/12/12 14:40:18;;;;;;;;;;;;;;;;;;6322820;28;20361;-83
2023/12/12 14:43:18;;;;;;;;;;;;;;;;;;6312627;28;19919;-84
2023/12/12 14:46:18;;;;;;;;;;;;;;;;;;6323309;28;20376;-83
2023/12/12 14:49:18;;;;;;;;;;;;;;;;;;6298661;28;19917;-83
2023/12/12 14:52:19;;;;;;;;;;;;;;;;;;6317152;28;19991;-83
2023/12/12 14:55:21;;;;;;;;;;;;;;;;;;6324540;28;20006;-80
2023/12/12 14:58:21;;;;;;;;;;;;;;;;;;6322183;28;19970;-79
2023/12/12 15:01:21;;;;;;;;;;;;;;;;;;6300346;28;19912;-80
2023/12/12 15:04:21;;;;;;;;;;;;;;;;;;6314002;28;20004;-80
2023/12/12 15:07:21;;;;;;;;;;;;;;;;;;6316947;28;19977;-79
2023/12/12 15:10:22;;;;;;;;;;;;;;;;;;6318211;28;20022;-80
2023/12/12 15:13:22;;;;;;;;;;;;;;;;;;6298799;28;19913;-80
2023/12/12 15:16:22;;;;;;;;;;;;;;;;;;6300302;28;19916;-79
2023/12/12 15:19:22;;;;;;;;;;;;;;;;;;6323144;28;19916;-80
2023/12/12 15:22:22;;;;;;;;;;;;;;;;;;6323951;28;19912;-80
2023/12/12 15:25:22;;;;;;;;;;;;;;;;;;6303316;28;19982;-80
2023/12/12 15:28:23;;;;;;;;;;;;;;;;;;6312323;28;19920;-80
2023/12/12 15:31:23;;;;;;;;;;;;;;;;;;6295473;28;19959;-80
2023/12/12 15:34:23;;;;;;;;;;;;;;;;;;6295248;28;19919;-81
2023/12/12 15:37:23;;;;;;;;;;;;;;;;;;5961917;27;10000611;-80
2023/12/12 15:40:24;;;;;;;;;;;;;;;;;;6320631;28;20561;-80
2023/12/12 15:43:24;;;;;;;;;;;;;;;;;;6316682;28;19945;-80
2023/12/12 15:46:24;;;;;;;;;;;;;;;;;;6320351;28;19916;-80
2023/12/12 15:49:24;;;;;;;;;;;;;;;;;;6294010;28;19913;-81
2023/12/12 15:52:24;;;;;;;;;;;;;;;;;;6313831;28;20007;-80
2023/12/12 15:55:24;;;;;;;;;;;;;;;;;;6319951;28;20023;-80
2023/12/12 15:58:24;;;;;;;;;;;;;;;;;;6301970;28;20006;-81
2023/12/12 16:01:25;;;;;;;;;;;;;;;;;;6301616;28;20523;-81
2023/12/12 16:04:25;;;;;;;;;;;;;;;;;;6310224;28;19969;-80
2023/12/12 16:07:25;;;;;;;;;;;;;;;;;;6314130;28;19928;-81
2023/12/12 16:10:25;;;;;;;;;;;;;;;;;;6300895;28;19919;-80
2023/12/12 16:13:26;;;;;;;;;;;;;;;;;;6304756;28;19915;-80
2023/12/12 16:16:26;;;;;;;;;;;;;;;;;;6319605;28;19920;-81
2023/12/12 16:19:27;;;;;;;;;;;;;;;;;;6299763;28;20397;-80
2023/12/12 16:22:27;;;;;;;;;;;;;;;;;;6304708;28;19920;-80
2023/12/12 16:25:27;;;;;;;;;;;;;;;;;;6307347;28;19923;-80
2023/12/12 16:28:27;;;;;;;;;;;;;;;;;;6302397;28;19920;-80
2023/12/12 16:31:28;;;;;;;;;;;;;;;;;;6300356;28;19924;-80
2023/12/12 16:34:28;;;;;;;;;;;;;;;;;;6307274;28;20411;-81
2023/12/12 16:37:28;;;;;;;;;;;;;;;;;;6297278;28;20026;-80
2023/12/12 16:40:28;;;;;;;;;;;;;;;;;;6292466;28;20034;-80
2023/12/12 16:43:28;;;;;;;;;;;;;;;;;;6294541;28;19916;-80
2023/12/12 16:46:29;;;;;;;;;;;;;;;;;;6306661;28;19951;-80
2023/12/12 16:49:29;;;;;;;;;;;;;;;;;;6309175;28;19912;-79
2023/12/12 16:52:29;;;;;;;;;;;;;;;;;;6296333;28;20614;-80
2023/12/12 16:55:30;;;;;;;;;;;;;;;;;;6320971;27;20373;-80
2023/12/12 16:58:30;;;;;;;;;;;;;;;;;;6320380;28;19965;-80
2023/12/12 17:01:31;;;;;;;;;;;;;;;;;;6316075;28;19935;-79
2023/12/12 17:04:32;;;;;;;;;;;;;;;;;;6296458;28;19931;-79
2023/12/12 17:07:32;;;;;;;;;;;;;;;;;;6316555;28;20321;-81
2023/12/12 17:10:40;;;;;;;;;;;;;;;;;;6236454;28;9999715;-80
2023/12/12 17:13:40;;;;;;;;;;;;;;;;;;6311701;28;19908;-83
2023/12/12 17:16:43;;;;;;;;;;;;;;;;;;6313116;28;19999;-83
2023/12/12 17:19:43;;;;;;;;;;;;;;;;;;6307154;28;20281;-84
2023/12/12 17:22:43;;;;;;;;;;;;;;;;;;6315326;28;19920;-84
2023/12/12 17:25:44;;;;;;;;;;;;;;;;;;6313208;28;19924;-84
2023/12/12 17:28:44;;;;;;;;;;;;;;;;;;6306589;28;19912;-84
2023/12/12 17:31:44;;;;;;;;;;;;;;;;;;6323233;28;19920;-84
2023/12/12 17:34:45;;;;;;;;;;;;;;;;;;6314546;28;19958;-83
2023/12/12 17:37:45;;;;;;;;;;;;;;;;;;6312574;28;19919;-84
2023/12/12 17:40:45;;;;;;;;;;;;;;;;;;6312455;28;20028;-83
2023/12/12 17:43:46;;;;;;;;;;;;;;;;;;6290613;28;19913;-84
2023/12/12 17:46:46;;;;;;;;;;;;;;;;;;6297309;28;20407;-84
2023/12/12 17:49:46;;;;;;;;;;;;;;;;;;6308966;28;20297;-84
2023/12/12 17:52:46;;;;;;;;;;;;;;;;;;6307614;28;20335;-84
2023/12/12 17:55:46;;;;;;;;;;;;;;;;;;6310062;28;19912;-84
2023/12/12 17:58:46;;;;;;;;;;;;;;;;;;6308016;28;19912;-84
2023/12/12 18:01:46;;;;;;;;;;;;;;;;;;6312669;28;19916;-84
2023/12/12 18:04:47;;;;;;;;;;;;;;;;;;6315532;28;19976;-83
2023/12/12 18:07:47;;;;;;;;;;;;;;;;;;6309381;28;19923;-84
2023/12/12 18:10:47;;;;;;;;;;;;;;;;;;6309507;28;19917;-83
2023/12/12 18:13:47;;;;;;;;;;;;;;;;;;6319740;28;20250;-83
2023/12/12 18:16:47;;;;;;;;;;;;;;;;;;6306880;28;19912;-84
2023/12/12 18:19:47;;;;;;;;;;;;;;;;;;6306159;28;19913;-83
2023/12/12 18:22:48;;;;;;;;;;;;;;;;;;6300355;28;20446;-83
2023/12/12 18:25:48;;;;;;;;;;;;;;;;;;6313396;28;19962;-83
2023/12/12 18:28:52;;;;;;;;;;;;;;;;;;6308726;28;20312;-83
2023/12/12 18:31:53;;;;;;;;;;;;;;;;;;6305527;28;19921;-83
2023/12/12 18:34:57;;;;;;;;;;;;;;;;;;6309538;28;19916;-83
2023/12/12 18:37:57;;;;;;;;;;;;;;;;;;6303880;28;19927;-84
2023/12/12 18:40:57;;;;;;;;;;;;;;;;;;6303108;28;20408;-83
2023/12/12 18:43:57;;;;;;;;;;;;;;;;;;5949354;27;9999923;-83
2023/12/12 18:46:57;;;;;;;;;;;;;;;;;;6303142;28;20296;-83
2023/12/12 18:49:57;;;;;;;;;;;;;;;;;;6301215;28;20890;-83
2023/12/12 18:52:57;;;;;;;;;;;;;;;;;;6292832;28;20023;-84
2023/12/12 18:55:58;;;;;;;;;;;;;;;;;;6317661;28;19927;-83
2023/12/12 18:58:58;;;;;;;;;;;;;;;;;;6305753;28;19921;-83
2023/12/12 19:01:58;;;;;;;;;;;;;;;;;;6312695;28;19965;-84
2023/12/12 19:04:58;;;;;;;;;;;;;;;;;;6302465;28;19920;-83
2023/12/12 19:08:00;;;;;;;;;;;;;;;;;;6294569;28;19931;-83
2023/12/12 19:11:01;;;;;;;;;;;;;;;;;;6302708;28;20362;-84
2023/12/12 19:14:01;;;;;;;;;;;;;;;;;;6316080;28;19923;-83
2023/12/12 19:17:01;;;;;;;;;;;;;;;;;;6302450;28;19923;-83
2023/12/12 19:20:04;;;;;;;;;;;;;;;;;;6299485;28;20283;-84
2023/12/12 19:23:07;;;;;;;;;;;;;;;;;;6298799;28;20058;-83
2023/12/12 19:26:07;;;;;;;;;;;;;;;;;;6300154;28;19973;-84
2023/12/12 19:29:07;;;;;;;;;;;;;;;;;;6310795;28;19920;-84
2023/12/12 19:32:07;;;;;;;;;;;;;;;;;;6301405;28;19931;-83
2023/12/12 19:35:08;;;;;;;;;;;;;;;;;;6278966;28;19923;-83
2023/12/12 19:38:08;;;;;;;;;;;;;;;;;;6299914;28;19920;-84
2023/12/12 19:41:08;;;;;;;;;;;;;;;;;;6302954;28;19916;-84
2023/12/12 19:44:08;;;;;;;;;;;;;;;;;;6306662;28;20185;-83
2023/12/12 19:47:09;;;;;;;;;;;;;;;;;;6298548;28;20428;-83
2023/12/12 19:50:10;;;;;;;;;;;;;;;;;;6304518;28;20368;-83
2023/12/12 19:53:10;;;;;;;;;;;;;;;;;;6299520;28;19912;-83
2023/12/12 19:56:10;;;;;;;;;;;;;;;;;;6307333;28;19919;-83
2023/12/12 19:59:10;;;;;;;;;;;;;;;;;;6306650;28;19916;-84
2023/12/12 20:02:11;;;;;;;;;;;;;;;;;;6296782;28;19912;-84
2023/12/12 20:05:11;;;;;;;;;;;;;;;;;;6303505;28;19927;-84
2023/12/12 20:08:12;;;;;;;;;;;;;;;;;;6298640;28;20023;-84
2023/12/12 20:11:12;;;;;;;;;;;;;;;;;;6294021;28;19962;-83
2023/12/12 20:14:12;;;;;;;;;;;;;;;;;;6300224;28;19962;-83
2023/12/12 20:17:12;;;;;;;;;;;;;;;;;;6309275;28;19916;-84
2023/12/12 20:20:13;;;;;;;;;;;;;;;;;;6309888;28;19916;-83
2023/12/12 20:23:13;;;;;;;;;;;;;;;;;;6309709;28;20002;-84
2023/12/12 20:26:13;;;;;;;;;;;;;;;;;;6293021;28;20022;-83
2023/12/12 20:29:13;;;;;;;;;;;;;;;;;;6303658;28;20385;-84
2023/12/12 20:32:14;;;;;;;;;;;;;;;;;;6305142;28;19924;-83